Date,TemperatureHighF,TemperatureAvgF,TemperatureLowF,DewpointHighF,DewpointAvgF,DewpointLowF,HumidityHigh,HumidityAvg,HumidityLow,PressureMaxIn,PressureMinIn,WindSpeedMaxMPH,WindSpeedAvgMPH,GustSpeedMaxMPH,PrecipitationSumIn
2013-1-1,25,19,7,18,14,3,87,80,73,30.28,30.18,7,3,11,0.00
2013-1-2,25,17,4,18,11,0,88,79,65,30.33,30.23,8,5,13,0.00
2013-1-3,32,26,16,29,22,13,91,87,80,30.38,30.25,16,8,19,0.00
2013-1-4,31,23,10,27,20,7,90,86,82,30.37,30.30,17,10,22,0.00
2013-1-5,36,32,22,33,29,19,96,90,82,30.32,30.07,15,8,21,0.00
2013-1-6,31,25,19,27,22,16,94,87,82,30.41,30.08,17,9,22,0.00
2013-1-7,38,29,17,31,25,16,94,85,70,30.45,30.21,15,8,22,0.00
2013-1-8,44,36,28,37,32,25,91,83,72,30.25,30.15,10,6,16,0.00
2013-1-9,50,41,33,40,34,28,92,76,49,30.52,30.29,14,7,20,0.00
2013-1-10,41,33,27,32,28,24,90,82,71,30.53,30.31,7,3,13,0.00
2013-1-11,56,53,49,55,51,48,98,91,86,29.86,29.75,16,10,25,0.00
2013-1-12,54,47,36,52,43,33,93,87,70,29.99,29.90,12,7,20,0.00
2013-1-13,30,26,22,29,25,18,96,92,85,30.16,29.98,14,10,17,0.00
2013-1-14,25,19,15,19,16,11,92,85,75,30.54,30.45,10,3,13,0.00
2013-1-15,31,24,14,24,20,12,94,86,72,30.51,30.21,4,1,8,0.00
2013-1-16,30,22,17,23,19,16,93,89,76,30.12,30.06,13,6,18,0.00
2013-1-19,39,39,38,33,33,33,80,79,78,29.99,29.99,16,15,18,0.00
2013-1-20,24,20,17,13,11,9,77,68,59,30.35,30.27,16,10,21,0.00
2013-1-21,15,11,7,11,2,-2,85,66,51,30.40,30.25,19,12,24,0.00
2013-1-22,14,11,2,4,1,-1,86,64,52,30.51,30.43,12,8,18,0.00
2013-1-23,26,20,15,17,10,5,84,66,56,30.40,30.18,12,6,15,0.00
2013-1-24,25,20,9,11,6,2,73,54,42,30.66,30.49,6,3,12,0.00
2013-1-25,35,26,20,24,19,10,89,76,59,30.30,30.05,13,6,19,0.00
2013-1-26,32,24,13,20,14,9,87,65,44,30.47,30.37,5,2,8,0.00
2013-1-27,37,32,26,36,27,20,96,82,68,30.41,30.02,4,2,8,0.00
2013-1-28,51,50,48,51,49,47,99,98,96,29.96,29.92,16,6,21,0.00
2013-1-29,61,60,57,60,58,56,98,95,93,29.78,29.47,15,11,26,0.00
2013-1-30,53,40,25,51,38,22,99,93,86,29.66,29.26,24,15,30,0.00
2013-1-31,23,18,8,19,12,2,88,78,72,30.25,29.84,21,18,29,0.00
2013-2-1,19,13,4,12,6,-1,82,73,66,30.49,30.38,13,11,29,0.00
2013-2-2,28,25,24,25,23,21,93,90,88,30.13,30.08,10,9,11,0.00
2013-2-3,26,23,15,23,19,13,94,85,74,30.16,30.06,18,8,20,0.00
2013-2-4,36,31,27,30,26,22,91,82,75,30.00,29.86,7,3,13,0.00
2013-2-5,36,32,24,32,29,23,94,90,85,30.13,29.88,15,8,22,0.00
2013-2-6,40,35,28,33,30,25,93,81,72,30.30,30.17,8,3,10,0.00
2013-2-7,48,39,33,41,36,31,97,91,74,30.16,29.86,13,4,17,0.00
2013-2-8,33,30,27,30,27,25,92,91,88,30.45,30.20,14,6,20,0.00
2013-2-9,39,34,30,32,29,24,87,81,74,30.45,30.14,8,2,15,0.00
2013-2-10,51,45,36,49,43,30,96,92,78,30.14,29.60,19,8,22,0.00
2013-2-11,36,35,33,31,29,27,83,79,75,30.10,29.75,24,17,31,0.00
2013-2-12,33,30,26,29,26,25,95,87,81,30.18,30.01,11,5,21,0.00
2013-2-13,46,37,26,38,33,25,96,86,70,29.90,29.80,13,5,15,0.00
2013-2-14,40,37,34,35,34,32,94,87,79,30.04,29.77,16,7,20,0.00
2013-2-15,34,30,24,31,23,19,93,73,58,30.24,30.11,14,9,18,0.00
2013-2-16,24,20,17,20,13,9,83,73,61,30.25,30.22,12,9,18,0.00
2013-2-17,34,26,10,22,15,6,85,63,42,30.31,30.08,6,2,20,0.00
2013-2-18,54,46,31,46,41,21,95,84,67,30.08,29.51,25,15,31,0.00
2013-2-19,31,20,17,28,14,11,91,81,76,30.24,29.69,25,18,33,0.00
2013-2-20,26,20,10,19,15,5,88,79,70,30.44,30.36,16,7,18,0.00
2013-2-21,29,26,22,26,22,19,93,86,78,30.44,29.99,12,6,25,0.00
2013-2-22,35,32,28,34,30,25,97,91,82,30.03,29.88,17,10,24,0.00
2013-2-23,28,27,20,25,22,18,91,84,75,30.06,30.00,11,7,16,0.00
2013-2-24,39,32,19,31,26,17,91,81,68,30.20,30.06,4,2,7,0.00
2013-2-25,44,36,26,34,31,24,95,80,66,30.22,29.98,8,4,14,0.00
2013-2-26,36,34,34,34,33,29,98,94,77,29.76,29.49,10,4,18,0.00
2013-2-27,34,33,32,33,32,31,97,96,94,29.75,29.60,11,9,15,0.00
2013-2-28,36,34,32,33,31,28,95,90,85,30.10,29.86,11,4,14,0.00
2013-3-1,34,31,29,30,28,26,94,89,84,30.19,30.11,10,7,16,0.00
2013-3-2,31,28,21,26,23,17,93,83,75,30.24,30.18,13,8,17,0.00
2013-3-3,33,27,17,24,20,14,90,76,56,30.23,30.14,7,3,10,0.00
2013-3-4,35,32,25,31,28,21,92,84,75,30.17,30.01,10,5,16,0.00
2013-3-5,35,33,30,34,32,29,98,96,93,29.96,29.79,8,4,14,0.00
2013-3-6,32,30,29,29,28,27,93,91,88,30.37,30.17,16,11,19,0.00
2013-3-7,36,31,26,30,27,24,93,86,73,30.48,30.42,4,1,4,0.00
2013-3-8,41,32,20,32,28,19,96,85,69,30.54,30.40,4,2,9,0.00
2013-3-9,47,42,35,39,36,31,86,79,70,30.31,29.88,4,2,8,0.00
2013-3-10,60,50,39,52,45,36,98,85,71,29.91,29.64,11,4,18,0.00
2013-3-11,48,39,34,47,37,31,97,94,90,29.87,29.62,17,11,23,0.00
2013-3-12,40,34,30,34,29,26,95,83,71,30.10,29.96,18,12,21,0.00
2013-3-13,34,30,26,24,23,21,89,76,60,30.41,30.20,16,8,23,0.00
2013-3-14,37,31,24,33,27,22,95,87,69,30.41,30.22,8,4,14,0.00
2013-3-15,50,37,31,44,35,29,95,92,79,30.11,29.77,6,2,13,0.00
2013-3-16,39,36,33,37,32,28,98,87,78,30.15,29.79,12,5,22,0.00
2013-3-17,37,34,32,30,28,26,87,78,70,30.23,30.02,9,5,16,0.00
2013-3-18,39,34,28,37,32,22,97,91,77,29.91,29.68,20,10,28,0.00
2013-3-19,38,31,21,25,22,15,81,68,54,30.18,29.95,21,14,29,0.00
2013-3-20,28,23,19,16,13,11,78,65,55,30.19,30.10,19,17,26,0.00
2013-3-21,36,26,15,21,17,12,87,72,50,30.12,30.06,10,4,14,0.00
2013-3-22,44,33,19,27,22,16,93,67,42,30.14,30.06,7,2,11,0.00
2013-3-23,48,38,29,29,26,22,81,63,45,30.17,30.02,5,3,10,0.00
2013-3-24,36,33,31,32,30,28,97,89,76,29.91,29.62,7,4,17,0.00
2013-3-25,36,33,30,33,31,29,97,90,83,30.11,29.76,19,9,23,0.00
2013-3-26,38,35,31,32,30,28,92,84,75,30.33,30.18,11,6,14,0.00
2013-3-27,43,38,31,32,29,24,92,70,49,30.38,30.32,11,5,13,0.00
2013-3-28,51,40,26,38,32,24,93,75,49,30.41,30.32,7,4,11,0.00
2013-3-29,55,47,34,38,35,30,95,65,46,30.36,30.25,7,2,8,0.00
2013-3-30,58,50,32,43,39,27,86,68,53,30.25,29.91,13,6,19,0.00
2013-3-31,62,51,40,46,40,32,96,69,45,29.92,29.76,19,12,25,0.00
2013-4-1,43,38,30,32,22,18,85,54,40,30.23,29.92,16,10,23,0.00
2013-4-2,45,32,21,24,19,14,90,66,29,30.34,30.27,14,6,18,0.00
2013-4-3,50,41,24,26,22,20,86,51,33,30.50,30.37,6,2,20,0.00
2013-4-4,59,47,27,29,26,23,88,47,25,30.28,30.03,8,3,10,0.00
2013-4-5,55,46,34,36,29,21,89,54,26,30.21,30.03,7,3,15,0.00
2013-4-6,72,64,41,44,40,32,70,43,34,30.09,29.69,23,13,30,0.00
2013-4-7,68,56,45,47,45,43,93,68,40,29.96,29.86,12,8,16,0.00
2013-4-8,76,67,58,59,56,52,91,68,46,29.93,29.71,22,11,30,0.00
2013-4-9,79,69,50,63,59,46,93,72,54,29.93,29.82,21,10,26,0.00
2013-4-10,58,46,43,54,45,42,98,94,85,29.92,29.72,12,4,19,0.00
2013-4-11,59,51,42,59,50,39,99,95,86,29.67,29.61,13,8,15,0.00
2013-4-12,44,41,38,40,38,35,91,87,82,29.94,29.68,19,12,25,0.00
2013-4-13,50,44,37,40,35,30,92,74,62,30.03,29.94,16,9,21,0.00
2013-4-14,75,63,43,55,48,40,90,60,39,29.98,29.71,9,5,14,0.00
2013-4-15,63,58,49,60,55,48,97,89,83,29.97,29.81,15,9,21,0.00
2013-4-16,46,45,45,45,43,42,96,92,91,30.13,30.06,8,5,8,0.00
2013-4-17,62,52,46,59,49,41,97,90,80,30.22,29.87,17,6,28,0.00
2013-4-18,70,60,44,67,58,40,97,94,84,29.67,29.47,26,11,29,0.00
2013-4-19,44,39,36,40,34,32,88,83,78,30.02,29.60,21,16,28,0.00
2013-4-20,47,40,33,34,31,29,93,71,52,30.46,30.02,12,5,17,0.00
2013-4-21,55,47,35,38,32,26,79,56,47,30.56,30.39,5,4,10,0.00
2013-4-22,68,58,40,45,40,34,82,54,34,30.33,30.08,8,2,10,0.00
2013-4-23,58,51,42,55,48,41,97,92,78,29.99,29.86,15,5,18,0.00
2013-4-24,49,43,38,39,37,33,95,80,58,30.22,29.99,14,8,18,0.00
2013-4-25,52,47,39,38,34,30,86,61,42,30.37,30.18,14,8,21,0.00
2013-4-26,66,57,42,50,44,35,83,63,53,30.41,30.30,15,7,20,0.00
2013-4-27,68,60,44,53,48,41,98,67,39,30.30,30.03,6,3,10,0.00
2013-4-28,63,58,54,58,56,54,98,92,79,29.91,29.85,6,3,7,0.00
2013-4-29,73,66,49,60,57,48,97,73,57,29.97,29.82,10,6,17,0.00
2013-4-30,84,75,58,65,62,54,87,64,49,29.95,29.85,13,7,20,0.00
2013-5-1,84,76,62,62,58,52,86,54,34,30.12,30.06,8,3,14,0.00
2013-5-2,72,58,46,59,50,42,91,76,61,30.16,30.07,6,3,10,0.00
2013-5-3,72,56,44,65,54,42,97,90,71,30.10,29.90,7,3,14,0.00
2013-5-4,72,63,55,58,55,52,96,74,55,30.03,29.94,10,3,14,0.00
2013-5-5,74,64,51,56,52,48,95,69,40,30.02,29.94,9,4,16,0.00
2013-5-6,75,67,54,55,50,43,79,56,45,30.01,29.93,5,3,11,0.00
2013-5-7,80,68,47,56,50,43,87,55,33,30.04,29.95,5,2,11,0.00
2013-5-8,84,73,52,58,53,44,87,51,26,30.04,29.94,5,2,10,0.00
2013-5-9,69,64,58,63,60,54,97,88,72,29.99,29.82,14,3,18,0.00
2013-5-10,64,56,50,62,54,47,97,92,88,29.95,29.81,12,4,14,0.00
2013-5-11,63,60,57,55,54,52,86,81,68,29.91,29.89,16,13,22,0.00
2013-5-12,45,45,45,34,34,34,65,65,65,30.15,30.15,11,11,13,0.00
2013-5-13,68,64,55,40,30,23,49,29,19,30.22,30.07,10,5,15,0.00
2013-5-14,94,82,56,63,56,42,62,43,25,29.92,29.70,15,10,18,0.00
2013-5-15,86,79,67,63,55,46,76,47,25,29.83,29.76,16,8,20,0.00
2013-5-16,85,75,58,58,53,46,87,49,29,29.95,29.86,5,1,7,0.00
2013-5-17,82,73,66,68,64,60,94,75,49,30.01,29.95,16,3,21,0.00
2013-5-18,79,70,62,68,65,62,99,87,66,30.05,29.93,3,1,10,0.00
2013-5-19,89,80,66,72,69,64,95,70,47,29.97,29.76,8,2,14,0.00
2013-5-20,91,82,73,72,64,60,87,57,36,29.83,29.72,18,10,23,0.00
2013-5-21,81,76,68,71,68,64,89,77,67,29.75,29.66,16,9,18,0.00
2013-5-22,71,68,67,66,65,65,92,90,83,29.67,29.62,13,7,17,0.00
2013-5-23,60,51,43,58,46,39,92,82,75,30.29,29.86,9,3,14,0.00
2013-5-24,63,54,39,46,42,37,94,64,42,30.45,30.33,5,2,10,0.00
2013-5-25,59,53,47,51,46,37,89,76,59,30.43,30.32,4,1,8,0.00
2013-5-26,62,57,50,57,53,46,95,85,67,30.31,30.16,5,1,8,0.00
2013-5-27,72,65,59,68,64,58,98,95,88,30.06,29.83,5,1,10,0.00
2013-5-28,79,77,76,73,72,71,87,84,79,29.82,29.79,18,10,22,0.00
2013-5-29,85,78,67,74,69,63,89,73,59,29.95,29.88,13,8,16,0.00
2013-5-30,84,76,66,72,69,65,95,80,66,29.93,29.81,19,7,24,0.00
2013-5-31,78,73,66,72,69,65,97,88,79,29.91,29.75,15,7,22,0.00
2013-6-1,76,71,66,70,66,62,90,85,76,29.79,29.72,19,12,23,0.00
2013-6-2,65,59,53,62,56,48,95,89,85,30.07,29.83,11,4,12,0.00
2013-6-3,69,61,47,54,50,45,96,66,52,30.15,30.04,5,2,8,0.00
2013-6-4,74,68,51,57,53,49,95,61,46,30.15,30.07,5,2,9,0.00
2013-6-5,80,73,60,61,58,54,84,60,48,30.07,29.88,4,2,11,0.00
2013-6-6,75,66,58,63,56,51,81,70,61,29.89,29.83,6,3,10,0.00
2013-6-7,74,68,55,62,58,52,92,72,50,29.91,29.86,4,2,9,0.00
2013-6-8,80,71,55,58,54,46,80,57,36,29.99,29.93,6,2,11,0.00
2013-6-9,81,74,62,66,63,59,91,70,49,29.99,29.80,8,2,14,0.00
2013-6-10,81,71,64,66,64,63,98,81,56,29.78,29.76,8,5,9,0.00
2013-6-11,89,82,66,72,67,60,90,62,41,29.94,29.79,10,4,12,0.00
2013-6-12,96,88,70,75,72,67,93,63,42,29.89,29.53,15,8,17,0.00
2013-6-13,78,71,64,64,62,57,97,75,53,30.02,29.73,8,4,13,0.00
2013-6-14,80,72,55,64,61,54,95,70,53,30.12,29.99,3,1,8,0.00
2013-6-15,81,76,67,69,67,63,90,74,63,30.03,29.89,9,3,15,0.00
2013-6-16,84,75,69,70,68,65,88,77,59,29.94,29.88,11,5,12,0.00
2013-6-17,87,82,68,71,65,58,97,58,39,29.94,29.85,4,1,6,0.00
2013-6-18,78,69,61,67,61,54,92,76,62,30.02,29.89,7,3,10,0.00
2013-6-19,82,75,59,65,61,56,90,64,50,30.12,30.04,4,2,7,0.00
2013-6-20,88,80,66,70,66,61,85,64,46,30.15,30.06,5,1,6,0.00
2013-6-21,89,80,70,73,68,64,82,69,51,30.11,30.07,11,5,16,0.00
2013-6-22,78,74,71,74,72,68,97,91,84,30.11,30.00,12,4,14,0.00
2013-6-23,80,76,72,74,70,69,91,82,76,30.04,30.00,9,6,13,0.00
2013-6-24,88,77,69,78,72,66,97,84,68,30.08,29.94,20,6,25,0.00
2013-6-25,86,77,70,78,71,66,95,84,64,29.92,29.78,14,6,19,0.00
2013-6-26,82,78,71,77,74,69,97,88,78,29.81,29.70,9,3,15,0.00
2013-6-27,90,82,68,77,72,68,98,74,53,29.78,29.69,11,6,16,0.00
2013-6-28,84,75,65,69,66,62,94,75,48,29.69,29.59,12,5,20,0.00
2013-6-29,74,70,67,69,67,65,97,88,80,29.64,29.59,5,1,7,0.00
2013-6-30,76,71,65,67,63,55,96,76,62,29.93,29.78,8,3,11,0.00
2013-7-1,77,70,63,65,60,54,89,71,61,30.01,29.95,7,3,13,0.00
2013-7-2,69,66,63,64,61,58,92,85,80,30.04,30.02,5,2,7,0.00
2013-7-3,72,68,63,66,64,62,98,89,79,30.08,30.03,5,2,6,0.00
2013-7-4,80,74,63,70,66,60,92,75,64,30.12,30.09,4,3,7,0.00
2013-7-5,82,74,62,72,69,62,98,83,64,30.10,30.02,5,2,6,0.00
2013-7-6,78,76,69,72,71,68,97,85,77,30.07,29.98,6,2,7,0.00
2013-7-7,86,77,68,76,71,67,96,83,68,30.03,29.97,7,4,11,0.00
2013-7-8,87,80,74,76,74,72,95,82,62,30.05,29.95,9,5,15,0.00
2013-7-9,87,81,75,80,78,74,96,88,78,29.98,29.87,7,3,14,0.00
2013-7-10,86,78,68,78,73,63,96,84,67,29.98,29.81,12,4,16,0.00
2013-7-11,80,74,61,66,62,57,96,67,47,30.07,30.04,4,2,7,0.00
2013-7-12,85,75,58,67,64,55,92,70,49,30.15,30.05,2,1,3,0.00
2013-7-13,85,78,65,69,67,62,89,69,55,30.15,30.07,3,1,7,0.00
2013-7-14,87,78,67,76,72,65,96,82,66,30.17,30.13,3,1,7,0.00
2013-7-15,91,84,73,80,76,72,97,79,63,30.25,30.17,4,1,8,0.00
2013-7-16,90,83,72,79,76,70,97,79,62,30.30,30.24,5,1,9,0.00
2013-7-17,92,86,73,79,76,71,95,73,58,30.31,30.16,3,1,7,0.00
2013-7-18,92,85,74,81,78,72,95,80,62,30.15,29.97,6,2,8,0.00
2013-7-19,93,88,77,80,78,75,94,73,58,29.93,29.78,8,6,16,0.00
2013-7-20,88,81,72,74,71,66,97,75,50,29.90,29.80,3,0,5,0.00
2013-7-21,83,78,71,76,73,68,98,84,76,29.94,29.84,4,1,5,0.00
2013-7-22,85,78,70,75,72,70,98,84,67,29.84,29.74,3,0,6,0.00
2013-7-23,84,71,62,71,64,58,98,80,61,29.94,29.76,6,2,13,0.00
2013-7-24,75,69,56,57,54,52,87,61,48,30.04,30.00,4,2,10,0.00
2013-7-25,81,71,52,64,59,50,96,67,46,30.14,30.05,3,1,7,0.00
2013-7-26,72,70,64,68,65,60,96,86,77,30.05,29.89,8,4,16,0.00
2013-7-27,71,66,56,67,58,50,98,76,57,29.92,29.89,8,5,16,0.00
2013-7-28,72,65,53,58,54,52,94,70,52,30.04,29.95,8,5,16,0.00
2013-7-29,79,70,50,64,59,48,96,70,52,30.17,30.10,4,2,11,0.00
2013-7-30,68,66,60,67,65,58,97,95,90,30.18,30.07,3,0,5,0.00
2013-7-31,77,72,68,72,70,68,99,92,82,30.03,29.95,6,2,12,0.00
2013-8-1,80,70,60,67,61,59,99,75,49,30.00,29.95,10,2,12,0.00
2013-8-2,84,76,64,74,68,60,88,77,65,29.92,29.86,8,5,15,0.00
2013-8-3,81,76,62,71,66,60,98,74,54,30.10,29.99,3,1,9,0.00
2013-8-4,80,71,56,65,61,55,98,72,49,30.18,30.09,2,1,8,0.00
2013-8-5,77,71,59,68,65,58,96,83,63,30.08,29.88,5,2,9,0.00
2013-8-6,82,74,67,74,71,65,97,90,76,29.92,29.85,5,1,9,0.00
2013-8-7,83,78,71,78,75,70,97,90,79,29.89,29.80,6,4,12,0.00
2013-8-8,80,74,68,71,67,60,93,78,68,29.96,29.91,3,2,7,0.00
2013-8-9,82,76,61,71,66,60,96,72,57,30.01,29.98,2,1,6,0.00
2013-8-10,83,78,66,71,68,65,97,73,55,30.10,30.05,4,2,8,0.00
2013-8-11,82,74,58,71,65,57,96,75,56,30.13,30.04,2,1,8,0.00
2013-8-12,84,78,66,74,71,63,93,78,65,30.01,29.85,7,3,10,0.00
2013-8-13,74,66,54,63,55,50,97,68,53,30.12,29.96,4,2,9,0.00
2013-8-14,73,66,52,59,56,51,96,73,52,30.23,30.15,3,0,5,0.00
2013-8-15,76,68,49,62,57,49,98,70,48,30.20,30.11,2,0,6,0.00
2013-8-16,79,70,59,62,60,57,96,73,49,30.17,30.13,3,1,7,0.00
2013-8-17,78,72,54,63,60,53,97,67,48,30.23,30.15,3,1,11,0.00
2013-8-18,83,72,56,66,63,54,98,75,55,30.19,30.10,3,1,8,0.00
2013-8-19,84,78,63,71,67,62,95,70,54,30.13,30.03,3,1,6,0.00
2013-8-20,87,77,64,72,67,62,96,74,55,30.11,30.04,5,2,9,0.00
2013-8-21,88,82,69,75,71,67,94,71,54,30.10,29.98,6,3,10,0.00
2013-8-22,75,72,70,72,70,69,98,94,87,30.13,29.99,4,1,12,0.00
2013-8-23,84,75,62,71,67,60,99,77,56,30.15,30.09,3,1,9,0.00
2013-8-24,86,77,61,70,66,59,93,70,49,30.25,30.19,4,1,6,0.00
2013-8-25,88,82,66,71,68,61,85,64,50,30.27,30.17,5,4,10,0.00
2013-8-26,89,81,67,77,73,64,94,77,61,30.17,30.03,4,3,9,0.00
2013-8-27,91,83,73,79,75,71,96,78,63,30.00,29.89,7,4,12,0.00
2013-8-28,89,82,74,80,74,68,85,78,72,29.95,29.88,6,3,12,0.00
2013-8-29,88,80,71,76,72,69,97,80,57,30.05,29.96,2,0,5,0.00
2013-8-30,95,84,65,81,76,64,99,77,56,29.96,29.77,5,3,10,0.00
2013-8-31,86,78,67,77,73,66,98,87,75,29.82,29.71,4,1,11,0.00
2013-9-1,84,76,69,74,72,68,99,88,69,29.80,29.74,3,1,6,0.00
2013-9-2,83,74,64,70,66,62,98,77,55,29.96,29.84,5,2,12,0.00
2013-9-3,76,68,57,63,60,56,99,77,56,30.09,30.01,4,1,9,0.00
2013-9-4,83,73,54,65,62,53,98,69,47,30.15,30.07,4,2,13,0.00
2013-9-5,80,69,60,68,61,55,94,76,64,30.20,30.14,3,1,6,0.00
2013-9-6,86,71,58,69,61,54,86,72,55,30.21,30.10,3,1,6,0.00
2013-9-7,88,82,66,72,68,64,94,65,49,30.02,29.90,8,3,16,0.00
2013-9-8,87,80,70,74,71,68,92,76,63,29.97,29.89,4,1,9,0.00
2013-9-9,96,86,70,78,75,69,98,70,51,29.92,29.82,7,5,16,0.00
2013-9-10,98,85,72,72,69,67,93,62,37,30.02,29.94,7,4,13,0.00
2013-9-11,96,87,72,72,70,67,94,60,40,30.05,29.95,7,4,13,0.00
2013-9-12,86,75,64,72,64,55,98,72,41,30.02,29.90,11,4,18,0.00
2013-9-13,69,63,55,55,53,50,94,71,52,30.15,30.10,5,3,13,0.00
2013-9-14,73,61,44,53,46,41,98,63,33,30.21,30.07,4,1,8,0.00
2013-9-15,73,64,53,62,56,49,97,76,50,30.11,29.98,9,2,12,0.00
2013-9-16,69,64,58,58,55,52,97,75,56,30.33,30.27,4,2,12,0.00
2013-9-17,74,65,48,60,56,47,97,75,56,30.33,30.15,3,0,7,0.00
2013-9-18,74,67,63,64,61,59,86,81,72,30.11,30.08,6,1,10,0.00
2013-9-19,93,82,71,76,73,70,97,75,53,29.96,29.80,10,5,18,0.00
2013-9-20,76,69,58,70,64,55,98,85,71,29.85,29.77,7,3,12,0.00
2013-9-21,72,62,52,56,52,50,98,73,47,29.95,29.83,7,2,13,0.00
2013-9-22,71,61,44,54,50,43,98,71,48,30.05,29.98,3,1,7,0.00
2013-9-23,74,64,44,54,51,43,96,64,43,30.12,30.02,4,1,8,0.00
2013-9-24,76,68,48,56,53,46,95,62,48,30.07,29.90,4,2,10,0.00
2013-9-25,80,68,51,61,57,49,94,69,50,29.95,29.88,3,1,8,0.00
2013-9-26,80,66,51,59,55,50,96,69,38,30.07,30.00,3,1,8,0.00
2013-9-27,84,72,52,62,57,50,94,64,37,30.17,30.05,4,1,9,0.00
2013-9-28,86,75,53,64,59,50,92,60,42,30.10,29.92,11,5,20,0.00
2013-9-29,72,65,57,57,55,51,97,72,49,30.03,29.97,5,2,13,0.00
2013-9-30,77,64,45,60,54,44,99,73,48,30.02,29.89,6,2,14,0.00
2013-10-1,78,65,64,68,64,63,98,94,69,30.00,29.96,7,4,10,0.00
2013-10-2,81,74,67,71,69,66,98,85,70,30.07,29.98,6,1,8,0.00
2013-10-3,86,72,67,73,68,65,98,89,57,29.97,29.84,10,4,14,0.00
2013-10-4,89,77,66,74,69,64,97,78,51,29.97,29.90,8,4,13,0.00
2013-10-5,79,73,68,73,70,67,98,91,81,29.92,29.77,7,4,14,0.00
2013-10-6,68,56,48,68,47,41,97,74,48,29.82,29.71,10,4,17,0.00
2013-10-7,70,59,44,53,48,42,97,71,45,30.10,29.90,8,4,18,0.00
2013-10-8,78,61,49,53,48,46,91,69,36,30.20,30.15,3,2,7,0.00
2013-10-9,75,63,46,52,49,45,95,65,38,30.26,30.14,3,1,10,0.00
2013-10-10,79,65,45,60,55,44,98,73,46,30.19,30.06,2,0,6,0.00
2013-10-11,79,67,51,60,56,49,97,70,46,30.10,29.97,4,1,11,0.00
2013-10-12,76,67,54,66,59,48,85,77,63,30.17,29.99,9,3,16,0.00
2013-10-13,70,58,41,48,41,34,95,58,27,30.42,30.30,6,2,12,0.00
2013-10-14,69,54,36,49,42,35,98,69,35,30.42,30.18,4,1,12,0.00
2013-10-15,64,61,52,64,58,48,97,92,80,30.04,29.83,8,4,13,0.00
2013-10-16,58,52,44,49,46,42,95,83,69,30.00,29.92,7,4,15,0.00
2013-10-17,58,52,48,50,47,43,97,85,61,29.98,29.88,8,3,14,0.00
2013-10-18,53,48,45,46,43,40,94,83,70,30.03,29.98,7,3,13,0.00
2013-10-19,52,48,42,44,41,37,96,78,56,30.00,29.89,7,4,12,0.00
2013-10-20,70,58,41,47,44,38,90,63,40,29.94,29.78,14,8,27,0.00
2013-10-21,52,46,33,47,36,27,90,68,49,30.04,29.91,9,5,23,0.00
2013-10-22,42,37,29,40,35,25,97,93,87,30.06,29.94,3,2,8,0.00
2013-10-23,41,37,33,35,34,32,97,88,72,30.10,29.96,5,2,9,0.00
2013-10-24,44,41,37,36,31,26,94,70,51,30.26,30.09,10,6,17,0.00
2013-10-25,53,46,26,33,31,23,93,57,44,30.49,30.28,8,5,17,0.00
2013-10-26,59,50,37,41,36,31,80,61,45,30.14,29.93,15,8,25,0.00
2013-10-27,58,46,30,37,32,27,92,62,38,30.14,30.04,7,4,11,0.00
2013-10-28,62,46,31,44,36,28,93,73,36,30.36,30.15,2,0,11,0.00
2013-10-29,57,44,37,45,40,35,96,87,63,30.37,30.24,5,2,10,0.00
2013-10-30,61,58,51,61,57,50,99,98,98,30.14,29.92,2,0,9,0.00
2013-10-31,65,60,49,63,58,48,98,96,92,29.67,29.26,14,9,24,0.00
2013-11-1,54,50,46,47,46,45,95,88,74,29.67,29.59,9,7,18,0.00
2013-11-2,49,43,37,44,40,35,98,90,78,30.18,29.85,11,5,15,0.00
2013-11-3,55,46,31,44,38,31,99,77,52,30.36,30.27,5,1,13,0.00
2013-11-4,59,52,45,47,43,39,82,73,58,30.31,30.17,13,5,18,0.00
2013-11-5,58,55,52,52,50,47,95,83,74,30.32,30.03,9,3,13,0.00
2013-11-6,57,46,36,56,44,34,95,92,85,30.19,29.89,17,10,25,0.00
2013-11-7,47,38,29,39,33,27,95,84,69,30.33,30.22,16,7,23,0.00
2013-11-8,51,42,27,37,33,26,95,72,49,30.41,30.07,13,4,20,0.00
2013-11-9,63,53,43,46,42,35,85,67,48,30.15,29.97,20,12,27,0.00
2013-11-10,49,42,31,36,34,28,93,74,56,30.40,30.26,14,5,20,0.00
2013-11-11,51,41,29,42,36,24,96,84,66,30.48,30.13,14,8,25,0.00
2013-11-12,34,28,22,27,23,19,90,82,66,30.75,30.63,12,6,16,0.00
2013-11-13,39,33,19,28,25,16,88,73,59,30.68,30.32,15,11,22,0.00
2013-11-14,52,42,30,32,29,24,78,60,44,30.25,30.04,17,11,24,0.00
2013-11-15,50,46,37,42,37,30,86,71,58,30.07,30.00,12,6,16,0.00
2013-11-16,62,54,43,59,51,39,96,90,79,30.02,29.67,17,8,26,0.00
2013-11-17,70,58,45,66,54,41,96,87,77,29.78,29.26,31,18,40,0.00
2013-11-18,47,40,32,39,34,29,90,81,61,30.28,29.91,21,12,30,0.00
2013-11-19,45,36,26,34,30,24,95,79,64,30.42,30.34,5,1,12,0.00
2013-11-20,45,40,30,39,34,28,93,79,66,30.33,30.13,4,1,12,0.00
2013-11-21,50,48,47,47,46,43,98,93,84,30.22,30.16,8,3,14,0.00
2013-11-22,44,38,30,44,36,28,98,91,80,30.52,30.26,11,5,18,0.00
2013-11-23,28,26,24,22,22,20,89,85,76,30.60,30.50,15,10,21,0.00
2013-11-24,27,22,14,16,13,10,85,67,49,30.82,30.54,9,4,20,0.00
2013-11-25,33,30,26,28,24,19,93,77,66,30.40,30.20,15,11,24,0.00
2013-11-26,37,31,24,31,27,15,90,83,67,30.18,30.05,17,8,23,0.00
2013-11-27,29,21,14,17,14,9,85,73,59,30.36,30.21,16,8,21,0.00
2013-11-28,37,30,22,24,20,16,87,68,54,30.55,30.26,16,7,28,0.00
2013-11-29,38,28,15,25,22,12,94,77,57,30.70,30.50,4,1,6,0.00
2013-11-30,52,42,31,35,31,26,82,67,52,30.40,30.13,13,7,20,0.00
2013-12-1,48,40,32,38,35,30,95,82,64,30.15,30.04,5,2,9,0.00
2013-12-2,43,40,34,38,36,32,96,86,74,29.95,29.79,6,3,15,0.00
2013-12-3,52,49,41,50,47,40,97,95,93,29.78,29.70,7,3,11,0.00
2013-12-4,59,55,44,58,54,42,99,96,90,29.75,29.55,15,5,21,0.00
2013-12-5,31,27,24,29,21,17,91,80,75,30.32,29.94,16,12,23,0.00
2013-12-6,22,20,14,17,14,10,86,79,71,30.61,30.36,11,6,15,0.00
2013-12-7,24,17,8,12,10,4,87,73,54,30.77,30.62,7,3,12,0.00
2013-12-8,28,24,13,27,22,10,95,88,77,30.66,30.04,11,4,14,0.00
2013-12-9,28,18,9,26,14,3,92,80,73,30.33,30.04,17,12,22,0.00
2013-12-10,26,18,4,18,11,-1,84,76,68,30.41,30.17,20,10,30,0.00
2013-12-11,23,15,2,19,10,-3,91,79,70,30.68,30.37,17,8,22,0.00
2013-12-12,28,20,3,18,13,-2,82,73,65,30.59,30.35,17,10,23,0.00
2013-12-13,36,31,15,30,26,12,96,82,68,30.28,30.13,7,2,12,0.00
2013-12-14,32,30,22,32,29,20,98,94,89,30.14,29.89,15,5,18,0.00
2013-12-15,16,15,10,12,11,7,89,84,81,30.21,30.10,15,10,18,0.00
2013-12-16,22,20,14,20,17,12,95,89,82,30.22,30.09,9,2,13,0.00
2013-12-17,31,25,20,28,22,16,96,90,82,30.21,30.06,15,10,19,0.00
2013-12-18,39,27,9,33,20,6,89,76,60,30.28,29.96,17,9,31,0.00
2013-12-19,44,41,39,42,39,36,95,91,87,29.98,29.82,10,6,16,0.00
2013-12-20,46,38,34,45,38,33,99,98,97,29.85,29.72,9,2,12,0.00
2013-12-21,36,34,32,35,34,32,99,99,98,29.88,29.56,5,1,8,0.00
2013-12-22,36,33,30,36,32,27,99,95,89,30.17,29.68,14,9,18,0.00
2013-12-23,21,14,4,18,10,0,91,83,76,30.58,30.40,16,13,22,0.00
2013-12-24,21,15,2,15,10,-2,85,80,75,30.68,30.46,10,4,16,0.00
2013-12-25,30,28,21,29,26,15,95,89,78,30.47,30.21,14,10,19,0.00
2013-12-26,36,32,16,31,27,14,91,81,73,30.39,30.27,14,9,23,0.00
2013-12-27,46,41,32,37,35,29,92,79,68,30.39,30.21,14,9,17,0.00
2013-12-28,53,44,36,42,37,33,89,77,63,30.18,29.92,14,10,20,0.00
2013-12-29,35,30,18,33,28,14,96,93,85,30.23,29.85,16,10,22,0.00
2013-12-30,17,14,8,14,10,4,90,83,74,30.41,30.28,8,5,11,0.00
2013-12-31,18,14,3,14,11,1,91,86,82,30.48,30.34,9,3,10,0.00
2014-1-1,24,22,18,21,19,16,92,89,86,30.29,30.19,6,3,12,0.00
2014-1-2,23,16,1,19,13,-2,92,87,83,30.47,30.17,8,3,15,0.00